sensor_id;sensor_type;location;lat;lon;timestamp;pressure;altitude;pressure_sealevel;temperature;humidity
6032;BME280;3044;43.232;27.972;2024-02-23T00:02:17;45224.25;;;-143.84;84.94
6032;BME280;3044;43.232;27.972;2024-02-23T00:04:45;45212.84;;;-143.84;84.67
6032;BME280;3044;43.232;27.972;2024-02-23T00:07:12;45209.03;;;-143.84;84.21
6032;BME280;3044;43.232;27.972;2024-02-23T00:09:40;45205.22;;;-143.84;83.26
6032;BME280;3044;43.232;27.972;2024-02-23T00:12:07;45184.25;;;-143.84;83.09
6032;BME280;3044;43.232;27.972;2024-02-23T00:14:35;45207.13;;;-143.84;82.65
6032;BME280;3044;43.232;27.972;2024-02-23T00:17:02;45243.31;;;-143.84;82.41
6032;BME280;3044;43.232;27.972;2024-02-23T00:19:30;45193.78;;;-143.84;82.15
6032;BME280;3044;43.232;27.972;2024-02-23T00:21:59;45205.22;;;-143.84;81.76
6032;BME280;3044;43.232;27.972;2024-02-23T00:24:26;45186.16;;;-143.84;81.13
6032;BME280;3044;43.232;27.972;2024-02-23T00:26:53;45243.31;;;-143.84;80.67
6032;BME280;3044;43.232;27.972;2024-02-23T00:29:20;45212.84;;;-143.84;80.63
6032;BME280;3044;43.232;27.972;2024-02-23T00:31:47;45218.53;;;-143.84;80.05
6032;BME280;3044;43.232;27.972;2024-02-23T00:34:15;45189.97;;;-143.84;80.32
6032;BME280;3044;43.232;27.972;2024-02-23T00:36:43;45205.22;;;-143.84;80.85
6032;BME280;3044;43.232;27.972;2024-02-23T00:39:12;45157.59;;;-143.84;81.50
6032;BME280;3044;43.232;27.972;2024-02-23T00:41:39;45216.63;;;-143.84;81.61
6032;BME280;3044;43.232;27.972;2024-02-23T00:44:06;45218.53;;;-143.84;82.40
6032;BME280;3044;43.232;27.972;2024-02-23T00:46:33;45205.22;;;-143.84;82.92
6032;BME280;3044;43.232;27.972;2024-02-23T00:49:00;45218.53;;;-143.84;82.89
6032;BME280;3044;43.232;27.972;2024-02-23T00:51:27;45231.88;;;-143.84;83.32
6032;BME280;3044;43.232;27.972;2024-02-23T00:53:55;45203.31;;;-143.84;83.27
6032;BME280;3044;43.232;27.972;2024-02-23T00:56:23;45216.63;;;-143.84;83.27
6032;BME280;3044;43.232;27.972;2024-02-23T00:58:51;45224.25;;;-143.84;83.27
6032;BME280;3044;43.232;27.972;2024-02-23T01:01:18;45209.03;;;-143.84;82.98
6032;BME280;3044;43.232;27.972;2024-02-23T01:03:45;45203.31;;;-143.84;83.43
6032;BME280;3044;43.232;27.972;2024-02-23T01:06:12;45207.13;;;-143.84;83.15
6032;BME280;3044;43.232;27.972;2024-02-23T01:08:39;45210.94;;;-143.84;83.41
6032;BME280;3044;43.232;27.972;2024-02-23T01:11:06;45212.84;;;-143.84;83.84
6032;BME280;3044;43.232;27.972;2024-02-23T01:13:35;45199.50;;;-143.84;83.86
6032;BME280;3044;43.232;27.972;2024-02-23T01:16:02;45212.84;;;-143.84;83.99
6032;BME280;3044;43.232;27.972;2024-02-23T01:18:29;45220.44;;;-143.84;83.89
6032;BME280;3044;43.232;27.972;2024-02-23T01:20:56;45193.78;;;-143.84;84.05
6032;BME280;3044;43.232;27.972;2024-02-23T01:23:24;45212.84;;;-143.84;84.25
6032;BME280;3044;43.232;27.972;2024-02-23T01:25:51;45216.63;;;-143.84;83.73
6032;BME280;3044;43.232;27.972;2024-02-23T01:28:18;45205.22;;;-143.84;84.25
6032;BME280;3044;43.232;27.972;2024-02-23T01:30:47;45214.72;;;-143.84;83.98
6032;BME280;3044;43.232;27.972;2024-02-23T01:33:14;45226.16;;;-143.84;84.35
6032;BME280;3044;43.232;27.972;2024-02-23T01:35:41;45197.59;;;-143.84;84.75
6032;BME280;3044;43.232;27.972;2024-02-23T01:38:08;45212.84;;;-143.84;85.06
6032;BME280;3044;43.232;27.972;2024-02-23T01:40:36;45210.94;;;-143.84;85.49
6032;BME280;3044;43.232;27.972;2024-02-23T01:43:03;45195.69;;;-143.84;85.12
6032;BME280;3044;43.232;27.972;2024-02-23T01:45:31;45231.88;;;-143.84;85.33
6032;BME280;3044;43.232;27.972;2024-02-23T01:48:00;45207.13;;;-143.84;85.53
6032;BME280;3044;43.232;27.972;2024-02-23T01:50:28;45216.63;;;-143.84;85.32
6032;BME280;3044;43.232;27.972;2024-02-23T01:53:00;45218.53;;;-143.84;85.42
6032;BME280;3044;43.232;27.972;2024-02-23T01:55:28;45193.78;;;-143.84;85.40
6032;BME280;3044;43.232;27.972;2024-02-23T01:57:56;45212.84;;;-143.84;85.51
6032;BME280;3044;43.232;27.972;2024-02-23T02:00:23;45209.03;;;-143.84;84.80
6032;BME280;3044;43.232;27.972;2024-02-23T02:02:51;45216.63;;;-143.84;84.83
6032;BME280;3044;43.232;27.972;2024-02-23T02:05:19;45201.41;;;-143.84;85.54
6032;BME280;3044;43.232;27.972;2024-02-23T02:07:47;45195.69;;;-143.84;85.60
6032;BME280;3044;43.232;27.972;2024-02-23T02:10:20;45212.84;;;-143.84;85.57
6032;BME280;3044;43.232;27.972;2024-02-23T02:12:47;45226.16;;;-143.84;86.04
6032;BME280;3044;43.232;27.972;2024-02-23T02:15:14;45203.31;;;-143.84;86.68
6032;BME280;3044;43.232;27.972;2024-02-23T02:17:41;45241.41;;;-143.84;87.48
6032;BME280;3044;43.232;27.972;2024-02-23T02:20:11;45209.03;;;-143.84;88.22
6032;BME280;3044;43.232;27.972;2024-02-23T02:22:40;45207.13;;;-143.84;88.93
6032;BME280;3044;43.232;27.972;2024-02-23T02:25:08;45220.44;;;-143.84;89.24
6032;BME280;3044;43.232;27.972;2024-02-23T02:27:35;45212.84;;;-143.84;89.66
6032;BME280;3044;43.232;27.972;2024-02-23T02:30:03;45224.25;;;-143.84;90.71
6032;BME280;3044;43.232;27.972;2024-02-23T02:32:30;45210.94;;;-143.84;91.57
6032;BME280;3044;43.232;27.972;2024-02-23T02:34:57;45235.69;;;-143.84;91.67
6032;BME280;3044;43.232;27.972;2024-02-23T02:37:24;45207.13;;;-143.84;92.60
6032;BME280;3044;43.232;27.972;2024-02-23T02:39:53;45216.63;;;-143.84;93.37
6032;BME280;3044;43.232;27.972;2024-02-23T02:42:20;45216.63;;;-143.84;93.11
6032;BME280;3044;43.232;27.972;2024-02-23T02:44:47;45207.13;;;-143.84;93.64
6032;BME280;3044;43.232;27.972;2024-02-23T02:47:14;45220.44;;;-143.84;93.37
6032;BME280;3044;43.232;27.972;2024-02-23T02:49:41;45228.06;;;-143.84;93.33
6032;BME280;3044;43.232;27.972;2024-02-23T02:52:08;45199.50;;;-143.84;93.65
6032;BME280;3044;43.232;27.972;2024-02-23T02:54:36;45199.50;;;-143.84;93.29
6032;BME280;3044;43.232;27.972;2024-02-23T02:57:04;45205.22;;;-143.84;93.28
6032;BME280;3044;43.232;27.972;2024-02-23T02:59:34;45205.22;;;-143.84;93.08
6032;BME280;3044;43.232;27.972;2024-02-23T03:02:01;45228.06;;;-143.84;92.31
6032;BME280;3044;43.232;27.972;2024-02-23T03:04:28;45209.03;;;-143.84;91.97
6032;BME280;3044;43.232;27.972;2024-02-23T03:06:55;45222.34;;;-143.84;92.14
6032;BME280;3044;43.232;27.972;2024-02-23T03:09:22;45191.88;;;-143.84;92.26
6032;BME280;3044;43.232;27.972;2024-02-23T03:11:49;45207.13;;;-143.84;91.59
6032;BME280;3044;43.232;27.972;2024-02-23T03:14:18;45235.69;;;-143.84;91.66
6032;BME280;3044;43.232;27.972;2024-02-23T03:16:46;45218.53;;;-143.84;91.15
6032;BME280;3044;43.232;27.972;2024-02-23T03:19:14;45220.44;;;-143.84;91.37
6032;BME280;3044;43.232;27.972;2024-02-23T03:21:42;45224.25;;;-143.84;91.69
6032;BME280;3044;43.232;27.972;2024-02-23T03:24:09;45199.50;;;-143.84;91.78
6032;BME280;3044;43.232;27.972;2024-02-23T03:26:36;45228.06;;;-143.84;91.23
6032;BME280;3044;43.232;27.972;2024-02-23T03:29:03;45172.84;;;-143.84;91.49
6032;BME280;3044;43.232;27.972;2024-02-23T03:31:32;45203.31;;;-143.84;90.93
6032;BME280;3044;43.232;27.972;2024-02-23T03:33:59;45195.69;;;-143.84;90.71
6032;BME280;3044;43.232;27.972;2024-02-23T03:36:26;45222.34;;;-143.84;91.46
6032;BME280;3044;43.232;27.972;2024-02-23T03:38:53;45231.88;;;-143.84;91.60
6032;BME280;3044;43.232;27.972;2024-02-23T03:41:20;45216.63;;;-143.84;91.91
6032;BME280;3044;43.232;27.972;2024-02-23T03:43:47;45216.63;;;-143.84;92.06
6032;BME280;3044;43.232;27.972;2024-02-23T03:46:14;45235.69;;;-143.84;92.37
6032;BME280;3044;43.232;27.972;2024-02-23T03:48:45;45205.22;;;-143.84;92.40
6032;BME280;3044;43.232;27.972;2024-02-23T03:51:12;45239.50;;;-143.84;92.60
6032;BME280;3044;43.232;27.972;2024-02-23T03:53:39;45193.78;;;-143.84;92.69
6032;BME280;3044;43.232;27.972;2024-02-23T03:56:06;45218.53;;;-143.84;92.74
6032;BME280;3044;43.232;27.972;2024-02-23T03:58:34;45197.59;;;-143.84;93.27
6032;BME280;3044;43.232;27.972;2024-02-23T04:01:01;45231.88;;;-143.84;93.77
6032;BME280;3044;43.232;27.972;2024-02-23T04:03:28;45203.31;;;-143.84;93.43
6032;BME280;3044;43.232;27.972;2024-02-23T04:05:56;45228.06;;;-143.84;93.40
6032;BME280;3044;43.232;27.972;2024-02-23T04:08:23;45203.31;;;-143.84;93.18
6032;BME280;3044;43.232;27.972;2024-02-23T04:10:50;45220.44;;;-143.84;93.49
6032;BME280;3044;43.232;27.972;2024-02-23T04:13:18;45205.22;;;-143.84;93.37
6032;BME280;3044;43.232;27.972;2024-02-23T04:15:45;45224.25;;;-143.84;92.99
6032;BME280;3044;43.232;27.972;2024-02-23T04:18:12;45214.72;;;-143.84;93.18
6032;BME280;3044;43.232;27.972;2024-02-23T04:20:39;45220.44;;;-143.84;92.76
6032;BME280;3044;43.232;27.972;2024-02-23T04:23:08;45218.53;;;-143.84;92.51
6032;BME280;3044;43.232;27.972;2024-02-23T04:25:35;45229.97;;;-143.84;92.44
6032;BME280;3044;43.232;27.972;2024-02-23T04:28:02;45222.34;;;-143.84;92.02
6032;BME280;3044;43.232;27.972;2024-02-23T04:30:29;45205.22;;;-143.84;91.78
6032;BME280;3044;43.232;27.972;2024-02-23T04:32:56;45199.50;;;-143.84;91.96
6032;BME280;3044;43.232;27.972;2024-02-23T04:35:23;45218.53;;;-143.84;92.26
6032;BME280;3044;43.232;27.972;2024-02-23T04:37:51;45226.16;;;-143.84;92.14
6032;BME280;3044;43.232;27.972;2024-02-23T04:40:20;45218.53;;;-143.84;92.08
6032;BME280;3044;43.232;27.972;2024-02-23T04:42:47;45220.44;;;-143.84;91.87
6032;BME280;3044;43.232;27.972;2024-02-23T04:45:14;45207.13;;;-143.84;91.78
6032;BME280;3044;43.232;27.972;2024-02-23T04:47:41;45205.22;;;-143.84;91.80
6032;BME280;3044;43.232;27.972;2024-02-23T04:50:09;45220.44;;;-143.84;91.32
6032;BME280;3044;43.232;27.972;2024-02-23T04:52:36;45228.06;;;-143.84;91.21
6032;BME280;3044;43.232;27.972;2024-02-23T04:55:03;45218.53;;;-143.84;91.18
6032;BME280;3044;43.232;27.972;2024-02-23T04:57:32;45197.59;;;-143.84;91.00
6032;BME280;3044;43.232;27.972;2024-02-23T04:59:59;45193.78;;;-143.84;90.95
6032;BME280;3044;43.232;27.972;2024-02-23T05:02:27;45201.41;;;-143.84;90.97
6032;BME280;3044;43.232;27.972;2024-02-23T05:05:00;45222.34;;;-143.84;91.15
6032;BME280;3044;43.232;27.972;2024-02-23T05:07:30;45214.72;;;-143.84;90.87
6032;BME280;3044;43.232;27.972;2024-02-23T05:09:57;45212.84;;;-143.84;90.69
6032;BME280;3044;43.232;27.972;2024-02-23T05:12:24;45212.84;;;-143.84;91.03
6032;BME280;3044;43.232;27.972;2024-02-23T05:14:53;45201.41;;;-143.84;91.02
6032;BME280;3044;43.232;27.972;2024-02-23T05:17:20;45231.88;;;-143.84;90.87
6032;BME280;3044;43.232;27.972;2024-02-23T05:19:47;45228.06;;;-143.84;90.84
6032;BME280;3044;43.232;27.972;2024-02-23T05:22:14;45235.69;;;-143.84;91.42
6032;BME280;3044;43.232;27.972;2024-02-23T05:24:41;45214.72;;;-143.84;91.68
6032;BME280;3044;43.232;27.972;2024-02-23T05:27:10;45220.44;;;-143.84;92.30
6032;BME280;3044;43.232;27.972;2024-02-23T05:29:37;45220.44;;;-143.84;92.94
6032;BME280;3044;43.232;27.972;2024-02-23T05:32:06;45220.44;;;-143.84;92.65
6032;BME280;3044;43.232;27.972;2024-02-23T05:34:33;45224.25;;;-143.84;92.74
6032;BME280;3044;43.232;27.972;2024-02-23T05:37:01;45195.69;;;-143.84;92.71
6032;BME280;3044;43.232;27.972;2024-02-23T05:39:28;45216.63;;;-143.84;92.74
6032;BME280;3044;43.232;27.972;2024-02-23T05:41:56;45209.03;;;-143.84;92.70
6032;BME280;3044;43.232;27.972;2024-02-23T05:44:25;45222.34;;;-143.84;93.52
6032;BME280;3044;43.232;27.972;2024-02-23T05:46:54;45205.22;;;-143.84;93.81
6032;BME280;3044;43.232;27.972;2024-02-23T05:49:22;45220.44;;;-143.84;93.65
6032;BME280;3044;43.232;27.972;2024-02-23T05:51:49;45203.31;;;-143.84;94.17
6032;BME280;3044;43.232;27.972;2024-02-23T05:54:16;45228.06;;;-143.84;94.30
6032;BME280;3044;43.232;27.972;2024-02-23T05:56:44;45228.06;;;-143.84;93.94
6032;BME280;3044;43.232;27.972;2024-02-23T05:59:11;45201.41;;;-143.84;94.18
6032;BME280;3044;43.232;27.972;2024-02-23T06:01:38;45224.25;;;-143.84;93.51
6032;BME280;3044;43.232;27.972;2024-02-23T06:04:04;45205.22;;;-143.84;93.28
6032;BME280;3044;43.232;27.972;2024-02-23T06:06:33;45233.78;;;-143.84;93.28
6032;BME280;3044;43.232;27.972;2024-02-23T06:09:00;45201.41;;;-143.84;93.19
6032;BME280;3044;43.232;27.972;2024-02-23T06:11:28;45203.31;;;-143.84;92.88
6032;BME280;3044;43.232;27.972;2024-02-23T06:13:55;45191.88;;;-143.84;92.24
6032;BME280;3044;43.232;27.972;2024-02-23T06:16:22;45176.66;;;-143.84;92.18
6032;BME280;3044;43.232;27.972;2024-02-23T06:18:50;45205.22;;;-143.84;92.06
6032;BME280;3044;43.232;27.972;2024-02-23T06:21:17;45186.16;;;-143.84;91.33
6032;BME280;3044;43.232;27.972;2024-02-23T06:23:46;45189.97;;;-143.84;90.70
6032;BME280;3044;43.232;27.972;2024-02-23T06:26:13;45205.22;;;-143.84;90.51
6032;BME280;3044;43.232;27.972;2024-02-23T06:28:40;45201.41;;;-143.84;89.95
6032;BME280;3044;43.232;27.972;2024-02-23T06:31:08;45184.25;;;-143.84;88.76
6032;BME280;3044;43.232;27.972;2024-02-23T06:33:35;45195.69;;;-143.84;87.30
6032;BME280;3044;43.232;27.972;2024-02-23T06:36:03;45184.25;;;-143.84;86.70
6032;BME280;3044;43.232;27.972;2024-02-23T06:38:30;45205.22;;;-143.84;86.48
6032;BME280;3044;43.232;27.972;2024-02-23T06:40:59;45189.97;;;-143.84;86.49
6032;BME280;3044;43.232;27.972;2024-02-23T06:43:26;45174.75;;;-143.84;85.75
6032;BME280;3044;43.232;27.972;2024-02-23T06:45:53;45178.56;;;-143.84;84.43
6032;BME280;3044;43.232;27.972;2024-02-23T06:48:20;45186.16;;;-143.84;83.82
6032;BME280;3044;43.232;27.972;2024-02-23T06:50:48;45176.66;;;-143.84;83.32
6032;BME280;3044;43.232;27.972;2024-02-23T06:53:15;45199.50;;;-143.84;82.64
6032;BME280;3044;43.232;27.972;2024-02-23T06:55:42;45186.16;;;-143.84;82.78
6032;BME280;3044;43.232;27.972;2024-02-23T06:58:10;45174.75;;;-143.84;83.38
6032;BME280;3044;43.232;27.972;2024-02-23T07:00:39;45209.03;;;-143.84;84.26
6032;BME280;3044;43.232;27.972;2024-02-23T07:03:06;45180.47;;;-143.84;84.69
6032;BME280;3044;43.232;27.972;2024-02-23T07:05:33;45210.94;;;-143.84;85.21
6032;BME280;3044;43.232;27.972;2024-02-23T07:08:01;45184.25;;;-143.84;85.88
6032;BME280;3044;43.232;27.972;2024-02-23T07:10:28;45191.88;;;-143.84;85.94
6032;BME280;3044;43.232;27.972;2024-02-23T07:12:55;45193.78;;;-143.84;86.53
6032;BME280;3044;43.232;27.972;2024-02-23T07:15:25;45216.63;;;-143.84;86.61
6032;BME280;3044;43.232;27.972;2024-02-23T07:17:52;45176.66;;;-143.84;87.25
6032;BME280;3044;43.232;27.972;2024-02-23T07:20:19;45186.16;;;-143.84;87.36
6032;BME280;3044;43.232;27.972;2024-02-23T07:22:47;45209.03;;;-143.84;87.66
6032;BME280;3044;43.232;27.972;2024-02-23T07:25:16;45210.94;;;-143.84;87.36
6032;BME280;3044;43.232;27.972;2024-02-23T07:27:43;45167.13;;;-143.84;87.69
6032;BME280;3044;43.232;27.972;2024-02-23T07:30:12;45178.56;;;-143.84;88.02
6032;BME280;3044;43.232;27.972;2024-02-23T07:32:40;45191.88;;;-143.84;88.02
6032;BME280;3044;43.232;27.972;2024-02-23T07:35:08;45157.59;;;-143.84;87.99
6032;BME280;3044;43.232;27.972;2024-02-23T07:37:36;45176.66;;;-143.84;87.76
6032;BME280;3044;43.232;27.972;2024-02-23T07:40:04;45188.06;;;-143.84;87.44
6032;BME280;3044;43.232;27.972;2024-02-23T07:42:31;45224.25;;;-143.84;88.06
6032;BME280;3044;43.232;27.972;2024-02-23T07:45:01;45205.22;;;-143.84;88.85
6032;BME280;3044;43.232;27.972;2024-02-23T07:47:30;45188.06;;;-143.84;88.75
6032;BME280;3044;43.232;27.972;2024-02-23T07:49:59;45212.84;;;-143.84;88.57
6032;BME280;3044;43.232;27.972;2024-02-23T07:52:26;45197.59;;;-143.84;88.51
6032;BME280;3044;43.232;27.972;2024-02-23T07:54:53;45170.94;;;-143.84;87.93
6032;BME280;3044;43.232;27.972;2024-02-23T07:57:20;45180.47;;;-143.84;88.32
6032;BME280;3044;43.232;27.972;2024-02-23T07:59:47;45203.31;;;-143.84;87.90
6032;BME280;3044;43.232;27.972;2024-02-23T08:02:15;45167.13;;;-143.84;86.83
6032;BME280;3044;43.232;27.972;2024-02-23T08:04:42;45157.59;;;-143.84;87.30
6032;BME280;3044;43.232;27.972;2024-02-23T08:07:11;45186.16;;;-143.84;84.98
6032;BME280;3044;43.232;27.972;2024-02-23T08:09:38;45180.47;;;-143.84;84.66
6032;BME280;3044;43.232;27.972;2024-02-23T08:12:06;45159.50;;;-143.84;81.53
6032;BME280;3044;43.232;27.972;2024-02-23T08:14:33;45157.59;;;-143.84;81.05
6032;BME280;3044;43.232;27.972;2024-02-23T08:17:00;45167.13;;;-143.84;79.82
6032;BME280;3044;43.232;27.972;2024-02-23T08:19:27;45184.25;;;-143.84;76.39
6032;BME280;3044;43.232;27.972;2024-02-23T08:21:55;45159.50;;;-143.84;75.51
6032;BME280;3044;43.232;27.972;2024-02-23T08:24:24;45178.56;;;-143.84;73.86
6032;BME280;3044;43.232;27.972;2024-02-23T08:26:52;45155.69;;;-143.84;74.03
6032;BME280;3044;43.232;27.972;2024-02-23T08:29:19;45157.59;;;-143.84;71.52
6032;BME280;3044;43.232;27.972;2024-02-23T08:31:46;45172.84;;;-143.84;70.77
6032;BME280;3044;43.232;27.972;2024-02-23T08:34:13;45151.91;;;-143.84;70.17
6032;BME280;3044;43.232;27.972;2024-02-23T08:36:40;45134.75;;;-143.84;68.55
6032;BME280;3044;43.232;27.972;2024-02-23T08:39:07;45146.19;;;-143.84;67.59
6032;BME280;3044;43.232;27.972;2024-02-23T08:41:36;45144.28;;;-143.84;66.94
6032;BME280;3044;43.232;27.972;2024-02-23T08:44:03;45130.94;;;-143.84;66.69
6032;BME280;3044;43.232;27.972;2024-02-23T08:46:30;45153.81;;;-143.84;65.39
6032;BME280;3044;43.232;27.972;2024-02-23T08:48:57;45119.53;;;-143.84;65.86
6032;BME280;3044;43.232;27.972;2024-02-23T08:51:24;45134.75;;;-143.84;65.57
6032;BME280;3044;43.232;27.972;2024-02-23T08:53:51;45136.66;;;-143.84;67.38
6032;BME280;3044;43.232;27.972;2024-02-23T08:56:19;45148.09;;;-143.84;65.08
6032;BME280;3044;43.232;27.972;2024-02-23T08:58:47;45151.91;;;-143.84;65.79
6032;BME280;3044;43.232;27.972;2024-02-23T09:01:14;45136.66;;;-143.84;64.22
6032;BME280;3044;43.232;27.972;2024-02-23T09:03:41;45151.91;;;-143.84;63.65
6032;BME280;3044;43.232;27.972;2024-02-23T09:06:08;45134.75;;;-143.84;65.12
6032;BME280;3044;43.232;27.972;2024-02-23T09:08:36;45127.13;;;-143.84;62.45
6032;BME280;3044;43.232;27.972;2024-02-23T09:11:03;45155.69;;;-143.84;60.98
6032;BME280;3044;43.232;27.972;2024-02-23T09:13:30;45157.59;;;-143.84;59.92
6032;BME280;3044;43.232;27.972;2024-02-23T09:15:59;45142.38;;;-143.84;58.56
6032;BME280;3044;43.232;27.972;2024-02-23T09:18:26;45132.84;;;-143.84;58.80
6032;BME280;3044;43.232;27.972;2024-02-23T09:20:53;45136.66;;;-143.84;59.39
6032;BME280;3044;43.232;27.972;2024-02-23T09:23:20;45140.47;;;-143.84;58.70
6032;BME280;3044;43.232;27.972;2024-02-23T09:25:47;45129.03;;;-143.84;59.08
6032;BME280;3044;43.232;27.972;2024-02-23T09:28:14;45123.34;;;-143.84;58.50
6032;BME280;3044;43.232;27.972;2024-02-23T09:30:41;45121.44;;;-143.84;57.33
6032;BME280;3044;43.232;27.972;2024-02-23T09:33:10;45132.84;;;-143.84;55.48
6032;BME280;3044;43.232;27.972;2024-02-23T09:35:37;45127.13;;;-143.84;55.51
6032;BME280;3044;43.232;27.972;2024-02-23T09:38:04;45117.63;;;-143.84;53.87
6032;BME280;3044;43.232;27.972;2024-02-23T09:40:32;45136.66;;;-143.84;54.26
6032;BME280;3044;43.232;27.972;2024-02-23T09:42:59;45127.13;;;-143.84;52.26
6032;BME280;3044;43.232;27.972;2024-02-23T09:45:26;45130.94;;;-143.84;52.50
6032;BME280;3044;43.232;27.972;2024-02-23T09:47:56;45125.22;;;-143.84;52.61
6032;BME280;3044;43.232;27.972;2024-02-23T09:50:27;45125.22;;;-143.84;53.30
6032;BME280;3044;43.232;27.972;2024-02-23T09:52:56;45117.63;;;-143.84;53.35
6032;BME280;3044;43.232;27.972;2024-02-23T09:55:25;45148.09;;;-143.84;52.09
6032;BME280;3044;43.232;27.972;2024-02-23T09:57:56;45119.53;;;-143.84;50.56
6032;BME280;3044;43.232;27.972;2024-02-23T10:00:25;45129.03;;;-143.84;49.80
6032;BME280;3044;43.232;27.972;2024-02-23T10:02:53;45138.56;;;-143.84;49.02
6032;BME280;3044;43.232;27.972;2024-02-23T10:05:23;45146.19;;;-143.84;49.93
6032;BME280;3044;43.232;27.972;2024-02-23T10:07:57;45123.34;;;-143.84;48.93
6032;BME280;3044;43.232;27.972;2024-02-23T10:10:29;45125.22;;;-143.84;48.01
6032;BME280;3044;43.232;27.972;2024-02-23T10:12:57;45117.63;;;-143.84;47.86
6032;BME280;3044;43.232;27.972;2024-02-23T10:15:24;45085.25;;;-143.84;47.38
6032;BME280;3044;43.232;27.972;2024-02-23T10:17:51;45096.66;;;-143.84;46.92
6032;BME280;3044;43.232;27.972;2024-02-23T10:20:19;45096.66;;;-143.84;46.06
6032;BME280;3044;43.232;27.972;2024-02-23T10:22:47;45094.78;;;-143.84;47.15
6032;BME280;3044;43.232;27.972;2024-02-23T10:25:15;45102.38;;;-143.84;48.17
6032;BME280;3044;43.232;27.972;2024-02-23T10:27:42;45113.81;;;-143.84;47.88
6032;BME280;3044;43.232;27.972;2024-02-23T10:30:10;45134.75;;;-143.84;49.84
6032;BME280;3044;43.232;27.972;2024-02-23T10:32:38;45106.19;;;-143.84;50.62
6032;BME280;3044;43.232;27.972;2024-02-23T10:35:11;45119.53;;;-143.84;51.56
6032;BME280;3044;43.232;27.972;2024-02-23T10:37:42;45119.53;;;-143.84;53.46
6032;BME280;3044;43.232;27.972;2024-02-23T10:40:12;45121.44;;;-143.84;54.38
6032;BME280;3044;43.232;27.972;2024-02-23T10:42:41;45150.00;;;-143.84;55.16
6032;BME280;3044;43.232;27.972;2024-02-23T10:45:14;45110.00;;;-143.84;54.60
6032;BME280;3044;43.232;27.972;2024-02-23T10:47:42;45132.84;;;-143.84;55.94
6032;BME280;3044;43.232;27.972;2024-02-23T10:50:10;45132.84;;;-143.84;57.16
6032;BME280;3044;43.232;27.972;2024-02-23T10:52:40;45151.91;;;-143.84;59.01
6032;BME280;3044;43.232;27.972;2024-02-23T10:55:09;45136.66;;;-143.84;58.02
6032;BME280;3044;43.232;27.972;2024-02-23T10:57:36;45127.13;;;-143.84;57.17
6032;BME280;3044;43.232;27.972;2024-02-23T11:00:08;45136.66;;;-143.84;56.70
6032;BME280;3044;43.232;27.972;2024-02-23T11:02:38;45129.03;;;-143.84;55.97
6032;BME280;3044;43.232;27.972;2024-02-23T11:05:07;45117.63;;;-143.84;58.62
6032;BME280;3044;43.232;27.972;2024-02-23T11:07:38;45144.28;;;-143.84;57.86
6032;BME280;3044;43.232;27.972;2024-02-23T11:10:06;45150.00;;;-143.84;57.39
6032;BME280;3044;43.232;27.972;2024-02-23T11:12:35;45132.84;;;-143.84;58.96
6032;BME280;3044;43.232;27.972;2024-02-23T11:15:02;45127.13;;;-143.84;55.49
6032;BME280;3044;43.232;27.972;2024-02-23T11:17:35;45121.44;;;-143.84;54.32
6032;BME280;3044;43.232;27.972;2024-02-23T11:20:03;45148.09;;;-143.84;54.99
6032;BME280;3044;43.232;27.972;2024-02-23T11:22:32;45144.28;;;-143.84;54.09
6032;BME280;3044;43.232;27.972;2024-02-23T11:25:00;45132.84;;;-143.84;54.51
6032;BME280;3044;43.232;27.972;2024-02-23T11:27:31;45132.84;;;-143.84;57.03
6032;BME280;3044;43.232;27.972;2024-02-23T11:30:03;45153.81;;;-143.84;58.06
6032;BME280;3044;43.232;27.972;2024-02-23T11:32:40;45130.94;;;-143.84;60.51
6032;BME280;3044;43.232;27.972;2024-02-23T11:35:10;45216.63;;;-143.84;59.31
6032;BME280;3044;43.232;27.972;2024-02-23T11:37:47;45125.22;;;-143.84;59.73
6032;BME280;3044;43.232;27.972;2024-02-23T11:40:15;45146.19;;;-143.84;62.64
6032;BME280;3044;43.232;27.972;2024-02-23T11:42:44;45148.09;;;-143.84;62.19
6032;BME280;3044;43.232;27.972;2024-02-23T11:45:11;45123.34;;;-143.84;62.88
6032;BME280;3044;43.232;27.972;2024-02-23T11:47:39;45176.66;;;-143.84;63.75
6032;BME280;3044;43.232;27.972;2024-02-23T11:50:09;45140.47;;;-143.84;62.90
6032;BME280;3044;43.232;27.972;2024-02-23T11:52:37;45142.38;;;-143.84;60.41
6032;BME280;3044;43.232;27.972;2024-02-23T11:55:05;45132.84;;;-143.84;61.88
6032;BME280;3044;43.232;27.972;2024-02-23T11:57:34;45115.72;;;-143.84;63.82
6032;BME280;3044;43.232;27.972;2024-02-23T12:00:01;45142.38;;;-143.84;61.80
6032;BME280;3044;43.232;27.972;2024-02-23T12:02:28;45113.81;;;-143.84;61.18
6032;BME280;3044;43.232;27.972;2024-02-23T12:04:57;45134.75;;;-143.84;61.42
6032;BME280;3044;43.232;27.972;2024-02-23T12:07:24;45117.63;;;-143.84;63.46
6032;BME280;3044;43.232;27.972;2024-02-23T12:09:54;45151.91;;;-143.84;63.28
6032;BME280;3044;43.232;27.972;2024-02-23T12:12:21;45153.81;;;-143.84;65.33
6032;BME280;3044;43.232;27.972;2024-02-23T12:14:49;45134.75;;;-143.84;62.23
6032;BME280;3044;43.232;27.972;2024-02-23T12:17:16;45136.66;;;-143.84;63.72
6032;BME280;3044;43.232;27.972;2024-02-23T12:19:43;45170.94;;;-143.84;63.25
6032;BME280;3044;43.232;27.972;2024-02-23T12:22:12;45150.00;;;-143.84;64.93
6032;BME280;3044;43.232;27.972;2024-02-23T12:24:41;45129.03;;;-143.84;63.68
6032;BME280;3044;43.232;27.972;2024-02-23T12:27:08;45146.19;;;-143.84;64.74
6032;BME280;3044;43.232;27.972;2024-02-23T12:29:35;45144.28;;;-143.84;64.44
6032;BME280;3044;43.232;27.972;2024-02-23T12:32:03;45125.22;;;-143.84;63.30
6032;BME280;3044;43.232;27.972;2024-02-23T12:34:31;45134.75;;;-143.84;62.92
6032;BME280;3044;43.232;27.972;2024-02-23T12:36:58;45140.47;;;-143.84;61.52
6032;BME280;3044;43.232;27.972;2024-02-23T12:39:26;45132.84;;;-143.84;62.02
6032;BME280;3044;43.232;27.972;2024-02-23T12:41:53;45155.69;;;-143.84;61.96
6032;BME280;3044;43.232;27.972;2024-02-23T12:44:22;45130.94;;;-143.84;61.02
6032;BME280;3044;43.232;27.972;2024-02-23T12:46:49;45132.84;;;-143.84;62.19
6032;BME280;3044;43.232;27.972;2024-02-23T12:49:16;45123.34;;;-143.84;62.42
6032;BME280;3044;43.232;27.972;2024-02-23T12:51:44;45130.94;;;-143.84;61.18
6032;BME280;3044;43.232;27.972;2024-02-23T12:54:11;45138.56;;;-143.84;60.12